sensor_id;sensor_type;location;lat;lon;timestamp;temperature;humidity
17200;DHT22;8716;52.268;20.968;2023-09-18T00:02:19;19.60;99.90
17200;DHT22;8716;52.268;20.968;2023-09-18T00:04:48;19.50;99.90
17200;DHT22;8716;52.268;20.968;2023-09-18T00:07:16;19.60;99.90
17200;DHT22;8716;52.268;20.968;2023-09-18T00:09:44;19.50;99.90
17200;DHT22;8716;52.268;20.968;2023-09-18T00:12:13;19.50;99.90
17200;DHT22;8716;52.268;20.968;2023-09-18T00:14:41;19.50;99.90
17200;DHT22;8716;52.268;20.968;2023-09-18T00:17:09;19.40;99.90
17200;DHT22;8716;52.268;20.968;2023-09-18T00:19:39;19.40;99.90
17200;DHT22;8716;52.268;20.968;2023-09-18T00:22:08;19.40;99.90
17200;DHT22;8716;52.268;20.968;2023-09-18T00:24:36;19.30;99.90
17200;DHT22;8716;52.268;20.968;2023-09-18T00:27:04;19.30;99.90
17200;DHT22;8716;52.268;20.968;2023-09-18T00:29:32;19.30;99.90
17200;DHT22;8716;52.268;20.968;2023-09-18T00:32:01;19.20;99.90
17200;DHT22;8716;52.268;20.968;2023-09-18T00:34:29;19.20;99.90
17200;DHT22;8716;52.268;20.968;2023-09-18T00:37:00;19.10;99.90
17200;DHT22;8716;52.268;20.968;2023-09-18T00:39:28;19.10;99.90
17200;DHT22;8716;52.268;20.968;2023-09-18T00:41:58;19.10;99.90
17200;DHT22;8716;52.268;20.968;2023-09-18T00:44:26;19.00;99.90
17200;DHT22;8716;52.268;20.968;2023-09-18T00:46:55;19.00;99.90
17200;DHT22;8716;52.268;20.968;2023-09-18T00:49:24;18.90;99.90
17200;DHT22;8716;52.268;20.968;2023-09-18T00:51:52;18.90;99.90
17200;DHT22;8716;52.268;20.968;2023-09-18T00:54:22;18.80;99.90
17200;DHT22;8716;52.268;20.968;2023-09-18T00:56:52;18.80;99.90
17200;DHT22;8716;52.268;20.968;2023-09-18T00:59:22;18.80;99.90
17200;DHT22;8716;52.268;20.968;2023-09-18T01:01:50;18.70;99.90
17200;DHT22;8716;52.268;20.968;2023-09-18T01:04:19;18.70;99.90
17200;DHT22;8716;52.268;20.968;2023-09-18T01:06:48;18.60;99.90
17200;DHT22;8716;52.268;20.968;2023-09-18T01:09:18;18.60;99.90
17200;DHT22;8716;52.268;20.968;2023-09-18T01:11:52;18.50;99.90
17200;DHT22;8716;52.268;20.968;2023-09-18T01:14:28;18.50;99.90
17200;DHT22;8716;52.268;20.968;2023-09-18T01:17:01;18.40;99.90
17200;DHT22;8716;52.268;20.968;2023-09-18T01:19:40;18.40;99.90
17200;DHT22;8716;52.268;20.968;2023-09-18T01:22:10;18.40;99.90
17200;DHT22;8716;52.268;20.968;2023-09-18T01:24:40;18.30;99.90
17200;DHT22;8716;52.268;20.968;2023-09-18T01:27:11;18.30;99.90
17200;DHT22;8716;52.268;20.968;2023-09-18T01:29:39;18.30;99.90
17200;DHT22;8716;52.268;20.968;2023-09-18T01:32:08;18.30;99.90
17200;DHT22;8716;52.268;20.968;2023-09-18T01:34:39;18.20;99.90
17200;DHT22;8716;52.268;20.968;2023-09-18T01:37:10;18.20;99.90
17200;DHT22;8716;52.268;20.968;2023-09-18T01:39:41;18.20;99.90
17200;DHT22;8716;52.268;20.968;2023-09-18T01:42:10;18.20;99.90
17200;DHT22;8716;52.268;20.968;2023-09-18T01:44:38;18.20;99.90
17200;DHT22;8716;52.268;20.968;2023-09-18T01:47:08;18.10;99.90
17200;DHT22;8716;52.268;20.968;2023-09-18T01:49:38;18.20;99.90
17200;DHT22;8716;52.268;20.968;2023-09-18T01:52:08;18.10;99.90
17200;DHT22;8716;52.268;20.968;2023-09-18T01:54:36;18.10;99.90
17200;DHT22;8716;52.268;20.968;2023-09-18T01:57:06;18.00;99.90
17200;DHT22;8716;52.268;20.968;2023-09-18T01:59:35;18.00;99.90
17200;DHT22;8716;52.268;20.968;2023-09-18T02:02:05;18.00;99.90
17200;DHT22;8716;52.268;20.968;2023-09-18T02:04:41;18.00;99.90
17200;DHT22;8716;52.268;20.968;2023-09-18T02:07:29;18.00;99.90
17200;DHT22;8716;52.268;20.968;2023-09-18T02:09:58;18.00;99.90
17200;DHT22;8716;52.268;20.968;2023-09-18T02:12:28;18.00;99.90
17200;DHT22;8716;52.268;20.968;2023-09-18T02:14:56;18.00;99.90
17200;DHT22;8716;52.268;20.968;2023-09-18T02:17:27;17.90;99.90
17200;DHT22;8716;52.268;20.968;2023-09-18T02:19:56;17.90;99.90
17200;DHT22;8716;52.268;20.968;2023-09-18T02:22:24;17.80;99.90
17200;DHT22;8716;52.268;20.968;2023-09-18T02:24:52;17.80;99.90
17200;DHT22;8716;52.268;20.968;2023-09-18T02:27:21;17.80;99.90
17200;DHT22;8716;52.268;20.968;2023-09-18T02:29:51;17.80;99.90
17200;DHT22;8716;52.268;20.968;2023-09-18T02:32:20;17.80;99.90
17200;DHT22;8716;52.268;20.968;2023-09-18T02:34:49;17.80;99.90
17200;DHT22;8716;52.268;20.968;2023-09-18T02:37:19;17.80;99.90
17200;DHT22;8716;52.268;20.968;2023-09-18T02:39:48;17.80;99.90
17200;DHT22;8716;52.268;20.968;2023-09-18T02:42:16;17.80;99.90
17200;DHT22;8716;52.268;20.968;2023-09-18T02:44:44;17.80;99.90
17200;DHT22;8716;52.268;20.968;2023-09-18T02:47:14;17.90;99.90
17200;DHT22;8716;52.268;20.968;2023-09-18T02:49:42;17.90;99.90
17200;DHT22;8716;52.268;20.968;2023-09-18T02:52:11;17.90;99.90
17200;DHT22;8716;52.268;20.968;2023-09-18T02:54:39;17.90;99.90
17200;DHT22;8716;52.268;20.968;2023-09-18T02:57:07;17.90;99.90
17200;DHT22;8716;52.268;20.968;2023-09-18T02:59:36;17.90;99.90
17200;DHT22;8716;52.268;20.968;2023-09-18T03:02:05;18.00;99.90
17200;DHT22;8716;52.268;20.968;2023-09-18T03:04:35;18.00;99.90
17200;DHT22;8716;52.268;20.968;2023-09-18T03:07:03;18.00;99.90
17200;DHT22;8716;52.268;20.968;2023-09-18T03:09:32;18.00;99.90
17200;DHT22;8716;52.268;20.968;2023-09-18T03:12:00;18.00;99.90
17200;DHT22;8716;52.268;20.968;2023-09-18T03:14:29;18.00;99.90
17200;DHT22;8716;52.268;20.968;2023-09-18T03:16:57;18.10;99.90
17200;DHT22;8716;52.268;20.968;2023-09-18T03:19:25;18.00;99.90
17200;DHT22;8716;52.268;20.968;2023-09-18T03:21:55;18.10;99.90
17200;DHT22;8716;52.268;20.968;2023-09-18T03:24:24;18.10;99.90
17200;DHT22;8716;52.268;20.968;2023-09-18T03:26:52;18.20;99.90
17200;DHT22;8716;52.268;20.968;2023-09-18T03:29:21;18.20;99.90
17200;DHT22;8716;52.268;20.968;2023-09-18T03:31:49;18.20;99.90
17200;DHT22;8716;52.268;20.968;2023-09-18T03:34:19;18.20;99.90
17200;DHT22;8716;52.268;20.968;2023-09-18T03:36:47;18.20;99.90
17200;DHT22;8716;52.268;20.968;2023-09-18T03:39:17;18.20;99.90
17200;DHT22;8716;52.268;20.968;2023-09-18T03:41:45;18.30;99.90
17200;DHT22;8716;52.268;20.968;2023-09-18T03:44:14;18.30;99.90
17200;DHT22;8716;52.268;20.968;2023-09-18T03:46:43;18.30;99.90
17200;DHT22;8716;52.268;20.968;2023-09-18T03:49:11;18.30;99.90
17200;DHT22;8716;52.268;20.968;2023-09-18T03:51:41;18.30;99.90
17200;DHT22;8716;52.268;20.968;2023-09-18T03:54:10;18.40;99.90
17200;DHT22;8716;52.268;20.968;2023-09-18T03:56:40;18.30;99.90
17200;DHT22;8716;52.268;20.968;2023-09-18T03:59:09;18.40;99.90
17200;DHT22;8716;52.268;20.968;2023-09-18T04:01:38;18.40;99.90
17200;DHT22;8716;52.268;20.968;2023-09-18T04:04:06;18.50;99.90
17200;DHT22;8716;52.268;20.968;2023-09-18T04:06:42;18.50;99.90
17200;DHT22;8716;52.268;20.968;2023-09-18T04:09:11;18.50;99.90
17200;DHT22;8716;52.268;20.968;2023-09-18T04:11:43;18.50;99.90
17200;DHT22;8716;52.268;20.968;2023-09-18T04:14:11;18.50;99.90
17200;DHT22;8716;52.268;20.968;2023-09-18T04:16:39;18.50;99.90
17200;DHT22;8716;52.268;20.968;2023-09-18T04:19:10;18.50;99.90
17200;DHT22;8716;52.268;20.968;2023-09-18T04:21:38;18.50;99.90
17200;DHT22;8716;52.268;20.968;2023-09-18T04:24:08;18.60;99.90
17200;DHT22;8716;52.268;20.968;2023-09-18T04:26:38;18.60;99.90
17200;DHT22;8716;52.268;20.968;2023-09-18T04:29:08;18.60;99.90
17200;DHT22;8716;52.268;20.968;2023-09-18T04:31:37;18.60;99.90
17200;DHT22;8716;52.268;20.968;2023-09-18T04:34:05;18.60;99.90
17200;DHT22;8716;52.268;20.968;2023-09-18T04:36:34;18.70;99.90
17200;DHT22;8716;52.268;20.968;2023-09-18T04:39:05;18.70;99.90
17200;DHT22;8716;52.268;20.968;2023-09-18T04:41:33;18.70;99.90
17200;DHT22;8716;52.268;20.968;2023-09-18T04:44:04;18.70;99.90
17200;DHT22;8716;52.268;20.968;2023-09-18T04:46:36;18.70;99.90
17200;DHT22;8716;52.268;20.968;2023-09-18T04:49:08;18.70;99.90
17200;DHT22;8716;52.268;20.968;2023-09-18T04:51:40;18.70;99.90
17200;DHT22;8716;52.268;20.968;2023-09-18T04:54:08;18.70;99.90
17200;DHT22;8716;52.268;20.968;2023-09-18T04:56:37;18.70;99.90
17200;DHT22;8716;52.268;20.968;2023-09-18T04:59:06;18.70;99.90
17200;DHT22;8716;52.268;20.968;2023-09-18T05:01:36;18.80;99.90
17200;DHT22;8716;52.268;20.968;2023-09-18T05:04:05;18.80;99.90
17200;DHT22;8716;52.268;20.968;2023-09-18T05:06:33;18.90;99.90
17200;DHT22;8716;52.268;20.968;2023-09-18T05:09:01;18.90;99.90
17200;DHT22;8716;52.268;20.968;2023-09-18T05:11:29;19.00;99.90
17200;DHT22;8716;52.268;20.968;2023-09-18T05:14:00;19.00;99.90
17200;DHT22;8716;52.268;20.968;2023-09-18T05:16:29;19.10;99.90
17200;DHT22;8716;52.268;20.968;2023-09-18T05:19:05;19.10;99.90
17200;DHT22;8716;52.268;20.968;2023-09-18T05:21:34;19.10;99.90
17200;DHT22;8716;52.268;20.968;2023-09-18T05:24:03;19.20;99.90
17200;DHT22;8716;52.268;20.968;2023-09-18T05:26:31;19.20;99.90
17200;DHT22;8716;52.268;20.968;2023-09-18T05:29:00;19.30;99.90
17200;DHT22;8716;52.268;20.968;2023-09-18T05:31:30;19.40;99.90
17200;DHT22;8716;52.268;20.968;2023-09-18T05:33:58;19.50;99.90
17200;DHT22;8716;52.268;20.968;2023-09-18T05:36:28;19.60;99.90
17200;DHT22;8716;52.268;20.968;2023-09-18T05:38:56;19.70;99.90
17200;DHT22;8716;52.268;20.968;2023-09-18T05:41:24;19.70;99.90
17200;DHT22;8716;52.268;20.968;2023-09-18T05:43:56;19.90;99.90
17200;DHT22;8716;52.268;20.968;2023-09-18T05:46:24;20.00;99.90
17200;DHT22;8716;52.268;20.968;2023-09-18T05:48:53;20.10;99.90
17200;DHT22;8716;52.268;20.968;2023-09-18T05:51:24;20.20;99.90
17200;DHT22;8716;52.268;20.968;2023-09-18T05:53:53;20.20;99.90
17200;DHT22;8716;52.268;20.968;2023-09-18T05:56:24;20.30;99.90
17200;DHT22;8716;52.268;20.968;2023-09-18T05:58:52;20.30;99.90
17200;DHT22;8716;52.268;20.968;2023-09-18T06:01:22;20.40;99.90
17200;DHT22;8716;52.268;20.968;2023-09-18T06:03:53;20.40;99.90
17200;DHT22;8716;52.268;20.968;2023-09-18T06:06:21;20.50;99.90
17200;DHT22;8716;52.268;20.968;2023-09-18T06:08:53;20.50;99.90
17200;DHT22;8716;52.268;20.968;2023-09-18T06:11:21;20.60;99.90
17200;DHT22;8716;52.268;20.968;2023-09-18T06:13:50;20.60;99.90
17200;DHT22;8716;52.268;20.968;2023-09-18T06:16:18;20.70;99.90
17200;DHT22;8716;52.268;20.968;2023-09-18T06:18:48;20.70;99.90
17200;DHT22;8716;52.268;20.968;2023-09-18T06:21:20;20.80;99.90
17200;DHT22;8716;52.268;20.968;2023-09-18T06:23:48;20.80;99.90
17200;DHT22;8716;52.268;20.968;2023-09-18T06:26:18;20.90;99.90
17200;DHT22;8716;52.268;20.968;2023-09-18T06:28:46;20.90;99.90
17200;DHT22;8716;52.268;20.968;2023-09-18T06:31:18;21.00;99.90
17200;DHT22;8716;52.268;20.968;2023-09-18T06:33:47;21.10;99.90
17200;DHT22;8716;52.268;20.968;2023-09-18T06:36:15;21.20;99.90
17200;DHT22;8716;52.268;20.968;2023-09-18T06:38:43;21.30;99.90
17200;DHT22;8716;52.268;20.968;2023-09-18T06:41:11;21.40;99.90
17200;DHT22;8716;52.268;20.968;2023-09-18T06:43:42;21.50;99.90
17200;DHT22;8716;52.268;20.968;2023-09-18T06:46:10;21.60;99.90
17200;DHT22;8716;52.268;20.968;2023-09-18T06:48:39;21.70;99.90
17200;DHT22;8716;52.268;20.968;2023-09-18T06:51:07;21.70;99.90
17200;DHT22;8716;52.268;20.968;2023-09-18T06:53:35;21.80;99.90
17200;DHT22;8716;52.268;20.968;2023-09-18T06:56:04;21.90;99.90
17200;DHT22;8716;52.268;20.968;2023-09-18T06:58:33;22.00;99.90
17200;DHT22;8716;52.268;20.968;2023-09-18T07:01:02;22.10;99.90
17200;DHT22;8716;52.268;20.968;2023-09-18T07:03:33;22.10;99.90
17200;DHT22;8716;52.268;20.968;2023-09-18T07:06:04;22.30;99.90
17200;DHT22;8716;52.268;20.968;2023-09-18T07:08:32;22.40;99.90
17200;DHT22;8716;52.268;20.968;2023-09-18T07:11:00;22.50;99.90
17200;DHT22;8716;52.268;20.968;2023-09-18T07:13:29;22.60;99.90
17200;DHT22;8716;52.268;20.968;2023-09-18T07:15:57;22.70;99.90
17200;DHT22;8716;52.268;20.968;2023-09-18T07:18:27;22.80;99.90
17200;DHT22;8716;52.268;20.968;2023-09-18T07:20:55;22.90;99.90
17200;DHT22;8716;52.268;20.968;2023-09-18T07:23:23;23.00;99.90
17200;DHT22;8716;52.268;20.968;2023-09-18T07:25:52;23.10;99.90
17200;DHT22;8716;52.268;20.968;2023-09-18T07:28:20;23.30;99.90
17200;DHT22;8716;52.268;20.968;2023-09-18T07:30:49;23.40;99.90
17200;DHT22;8716;52.268;20.968;2023-09-18T07:33:17;23.60;99.90
17200;DHT22;8716;52.268;20.968;2023-09-18T07:35:49;23.80;99.90
17200;DHT22;8716;52.268;20.968;2023-09-18T07:38:18;24.00;99.90
17200;DHT22;8716;52.268;20.968;2023-09-18T07:40:49;24.10;99.90
17200;DHT22;8716;52.268;20.968;2023-09-18T07:43:17;24.20;99.90
17200;DHT22;8716;52.268;20.968;2023-09-18T07:45:47;24.40;99.90
17200;DHT22;8716;52.268;20.968;2023-09-18T07:48:17;24.50;99.90
17200;DHT22;8716;52.268;20.968;2023-09-18T07:50:48;24.60;99.90
17200;DHT22;8716;52.268;20.968;2023-09-18T07:53:18;24.70;99.90
17200;DHT22;8716;52.268;20.968;2023-09-18T07:55:55;24.80;99.90
17200;DHT22;8716;52.268;20.968;2023-09-18T07:58:27;24.80;99.90
17200;DHT22;8716;52.268;20.968;2023-09-18T08:00:56;24.90;99.90
17200;DHT22;8716;52.268;20.968;2023-09-18T08:03:26;25.00;99.90
17200;DHT22;8716;52.268;20.968;2023-09-18T08:05:56;25.10;99.90
17200;DHT22;8716;52.268;20.968;2023-09-18T08:08:25;25.10;99.90
17200;DHT22;8716;52.268;20.968;2023-09-18T08:10:53;25.20;99.90
17200;DHT22;8716;52.268;20.968;2023-09-18T08:13:21;25.30;99.90
17200;DHT22;8716;52.268;20.968;2023-09-18T08:15:51;25.40;99.90
17200;DHT22;8716;52.268;20.968;2023-09-18T08:18:19;25.40;99.90
17200;DHT22;8716;52.268;20.968;2023-09-18T08:20:48;25.50;99.90
17200;DHT22;8716;52.268;20.968;2023-09-18T08:23:18;25.60;99.90
17200;DHT22;8716;52.268;20.968;2023-09-18T08:25:46;25.80;99.90
17200;DHT22;8716;52.268;20.968;2023-09-18T08:28:17;26.90;99.90
17200;DHT22;8716;52.268;20.968;2023-09-18T08:30:45;28.60;99.90
17200;DHT22;8716;52.268;20.968;2023-09-18T08:33:16;30.30;99.90
17200;DHT22;8716;52.268;20.968;2023-09-18T08:35:44;31.90;99.90
17200;DHT22;8716;52.268;20.968;2023-09-18T08:38:14;33.40;99.90
17200;DHT22;8716;52.268;20.968;2023-09-18T08:40:44;34.70;99.90
17200;DHT22;8716;52.268;20.968;2023-09-18T08:43:14;35.80;99.90
17200;DHT22;8716;52.268;20.968;2023-09-18T08:45:48;37.00;99.90
17200;DHT22;8716;52.268;20.968;2023-09-18T08:48:18;38.10;95.90
17200;DHT22;8716;52.268;20.968;2023-09-18T08:50:47;39.20;91.90
17200;DHT22;8716;52.268;20.968;2023-09-18T08:53:15;40.00;89.10
17200;DHT22;8716;52.268;20.968;2023-09-18T08:55:45;40.90;85.40
17200;DHT22;8716;52.268;20.968;2023-09-18T08:58:13;41.80;79.80
17200;DHT22;8716;52.268;20.968;2023-09-18T09:00:46;42.40;73.80
17200;DHT22;8716;52.268;20.968;2023-09-18T09:03:14;43.00;70.40
17200;DHT22;8716;52.268;20.968;2023-09-18T09:05:44;43.60;68.20
17200;DHT22;8716;52.268;20.968;2023-09-18T09:08:12;44.00;65.00
17200;DHT22;8716;52.268;20.968;2023-09-18T09:10:41;44.20;62.20
17200;DHT22;8716;52.268;20.968;2023-09-18T09:13:13;44.70;60.70
17200;DHT22;8716;52.268;20.968;2023-09-18T09:16:00;45.00;58.10
17200;DHT22;8716;52.268;20.968;2023-09-18T09:18:31;45.10;57.10
17200;DHT22;8716;52.268;20.968;2023-09-18T09:21:01;45.20;56.90
17200;DHT22;8716;52.268;20.968;2023-09-18T09:23:45;45.40;56.90
17200;DHT22;8716;52.268;20.968;2023-09-18T09:26:17;45.60;55.20
17200;DHT22;8716;52.268;20.968;2023-09-18T09:28:47;45.70;55.30
17200;DHT22;8716;52.268;20.968;2023-09-18T09:31:24;45.50;53.90
17200;DHT22;8716;52.268;20.968;2023-09-18T09:33:53;45.40;53.70
17200;DHT22;8716;52.268;20.968;2023-09-18T09:36:23;45.30;52.90
17200;DHT22;8716;52.268;20.968;2023-09-18T09:38:55;44.90;53.30
17200;DHT22;8716;52.268;20.968;2023-09-18T09:41:25;44.90;52.90
17200;DHT22;8716;52.268;20.968;2023-09-18T09:43:57;44.90;52.50
17200;DHT22;8716;52.268;20.968;2023-09-18T09:46:26;44.70;53.30
17200;DHT22;8716;52.268;20.968;2023-09-18T09:48:59;44.50;52.80
17200;DHT22;8716;52.268;20.968;2023-09-18T09:51:28;44.60;53.30
17200;DHT22;8716;52.268;20.968;2023-09-18T09:53:57;44.70;53.10
17200;DHT22;8716;52.268;20.968;2023-09-18T09:56:43;44.90;52.50
17200;DHT22;8716;52.268;20.968;2023-09-18T09:59:14;44.90;52.70
17200;DHT22;8716;52.268;20.968;2023-09-18T10:01:43;44.80;52.50
17200;DHT22;8716;52.268;20.968;2023-09-18T10:04:18;44.90;52.90
17200;DHT22;8716;52.268;20.968;2023-09-18T10:06:53;45.10;51.40
17200;DHT22;8716;52.268;20.968;2023-09-18T10:09:23;45.30;51.30
17200;DHT22;8716;52.268;20.968;2023-09-18T10:11:56;45.30;49.70
17200;DHT22;8716;52.268;20.968;2023-09-18T10:14:30;45.10;49.30
17200;DHT22;8716;52.268;20.968;2023-09-18T10:17:16;44.90;48.90
17200;DHT22;8716;52.268;20.968;2023-09-18T10:19:49;44.80;48.30
17200;DHT22;8716;52.268;20.968;2023-09-18T10:22:26;44.90;49.40
17200;DHT22;8716;52.268;20.968;2023-09-18T10:25:10;45.00;49.80
17200;DHT22;8716;52.268;20.968;2023-09-18T10:27:41;45.10;49.90
17200;DHT22;8716;52.268;20.968;2023-09-18T10:30:13;44.90;49.40
17200;DHT22;8716;52.268;20.968;2023-09-18T10:32:45;44.80;48.70
17200;DHT22;8716;52.268;20.968;2023-09-18T10:35:18;44.80;48.80
17200;DHT22;8716;52.268;20.968;2023-09-18T10:37:48;44.90;48.90
17200;DHT22;8716;52.268;20.968;2023-09-18T10:40:19;44.80;48.50
17200;DHT22;8716;52.268;20.968;2023-09-18T10:42:50;44.40;48.10
17200;DHT22;8716;52.268;20.968;2023-09-18T10:45:20;44.00;48.00
17200;DHT22;8716;52.268;20.968;2023-09-18T10:47:49;43.70;48.60
17200;DHT22;8716;52.268;20.968;2023-09-18T10:50:26;43.30;48.90
17200;DHT22;8716;52.268;20.968;2023-09-18T10:52:57;42.90;49.30
17200;DHT22;8716;52.268;20.968;2023-09-18T10:55:26;42.70;50.30
17200;DHT22;8716;52.268;20.968;2023-09-18T10:57:56;42.30;50.70
17200;DHT22;8716;52.268;20.968;2023-09-18T11:00:26;42.10;51.70
17200;DHT22;8716;52.268;20.968;2023-09-18T11:03:10;41.90;51.20
17200;DHT22;8716;52.268;20.968;2023-09-18T11:05:39;41.60;50.40
17200;DHT22;8716;52.268;20.968;2023-09-18T11:08:30;41.00;51.50
17200;DHT22;8716;52.268;20.968;2023-09-18T11:11:03;40.50;52.60
17200;DHT22;8716;52.268;20.968;2023-09-18T11:13:40;39.90;52.70
17200;DHT22;8716;52.268;20.968;2023-09-18T11:16:35;39.50;53.80
17200;DHT22;8716;52.268;20.968;2023-09-18T11:19:09;38.90;54.60
17200;DHT22;8716;52.268;20.968;2023-09-18T11:21:38;38.40;55.60
17200;DHT22;8716;52.268;20.968;2023-09-18T11:24:07;38.30;56.80
17200;DHT22;8716;52.268;20.968;2023-09-18T11:26:40;38.30;57.10
17200;DHT22;8716;52.268;20.968;2023-09-18T11:29:11;38.30;56.00
17200;DHT22;8716;52.268;20.968;2023-09-18T11:31:45;38.00;56.50
17200;DHT22;8716;52.268;20.968;2023-09-18T11:34:15;37.60;56.10
17200;DHT22;8716;52.268;20.968;2023-09-18T11:36:44;37.20;56.80
17200;DHT22;8716;52.268;20.968;2023-09-18T11:39:12;36.80;57.50
17200;DHT22;8716;52.268;20.968;2023-09-18T11:41:40;36.50;58.10
17200;DHT22;8716;52.268;20.968;2023-09-18T11:44:32;36.20;58.90
17200;DHT22;8716;52.268;20.968;2023-09-18T11:47:07;35.80;60.30
17200;DHT22;8716;52.268;20.968;2023-09-18T11:49:35;35.80;60.30
17200;DHT22;8716;52.268;20.968;2023-09-18T11:52:05;35.80;59.40
17200;DHT22;8716;52.268;20.968;2023-09-18T11:54:33;35.60;59.10
17200;DHT22;8716;52.268;20.968;2023-09-18T11:57:05;35.40;59.40
17200;DHT22;8716;52.268;20.968;2023-09-18T11:59:38;35.30;60.10
17200;DHT22;8716;52.268;20.968;2023-09-18T12:02:13;35.10;59.70
17200;DHT22;8716;52.268;20.968;2023-09-18T12:04:48;35.10;60.20
17200;DHT22;8716;52.268;20.968;2023-09-18T12:07:16;34.90;60.80
17200;DHT22;8716;52.268;20.968;2023-09-18T12:09:46;34.70;61.20
17200;DHT22;8716;52.268;20.968;2023-09-18T12:12:16;34.30;61.60
17200;DHT22;8716;52.268;20.968;2023-09-18T12:14:45;33.90;62.60
17200;DHT22;8716;52.268;20.968;2023-09-18T12:17:18;33.60;62.90
17200;DHT22;8716;52.268;20.968;2023-09-18T12:19:51;33.30;63.50
17200;DHT22;8716;52.268;20.968;2023-09-18T12:22:24;33.10;64.20
17200;DHT22;8716;52.268;20.968;2023-09-18T12:24:53;32.90;64.90
17200;DHT22;8716;52.268;20.968;2023-09-18T12:27:21;32.70;65.40
17200;DHT22;8716;52.268;20.968;2023-09-18T12:29:54;32.70;65.80
17200;DHT22;8716;52.268;20.968;2023-09-18T12:32:24;32.70;65.70
17200;DHT22;8716;52.268;20.968;2023-09-18T12:34:56;32.70;65.40
17200;DHT22;8716;52.268;20.968;2023-09-18T12:37:25;32.60;65.80
17200;DHT22;8716;52.268;20.968;2023-09-18T12:39:53;32.60;66.00
17200;DHT22;8716;52.268;20.968;2023-09-18T12:42:21;32.60;65.70
17200;DHT22;8716;52.268;20.968;2023-09-18T12:44:50;32.60;65.90
17200;DHT22;8716;52.268;20.968;2023-09-18T12:47:19;32.60;66.40
17200;DHT22;8716;52.268;20.968;2023-09-18T12:49:49;32.50;65.90
17200;DHT22;8716;52.268;20.968;2023-09-18T12:52:22;32.30;65.90
17200;DHT22;8716;52.268;20.968;2023-09-18T12:54:50;32.10;66.50
17200;DHT22;8716;52.268;20.968;2023-09-18T12:57:21;32.00;66.60
17200;DHT22;8716;52.268;20.968;2023-09-18T12:59:49;31.90;67.10
17200;DHT22;8716;52.268;20.968;2023-09-18T13:02:20;31.90;67.50
17200;DHT22;8716;52.268;20.968;2023-09-18T13:04:57;32.00;67.10
17200;DHT22;8716;52.268;20.968;2023-09-18T13:07:26;31.90;67.20
17200;DHT22;8716;52.268;20.968;2023-09-18T13:09:58;31.90;67.50
17200;DHT22;8716;52.268;20.968;2023-09-18T13:12:39;31.70;68.00
17200;DHT22;8716;52.268;20.968;2023-09-18T13:15:08;31.50;68.80
17200;DHT22;8716;52.268;20.968;2023-09-18T13:17:40;31.40;69.30
17200;DHT22;8716;52.268;20.968;2023-09-18T13:20:15;31.40;70.20
17200;DHT22;8716;52.268;20.968;2023-09-18T13:22:48;31.40;70.90
17200;DHT22;8716;52.268;20.968;2023-09-18T13:25:20;31.30;71.10
17200;DHT22;8716;52.268;20.968;2023-09-18T13:27:49;31.30;71.50
17200;DHT22;8716;52.268;20.968;2023-09-18T13:30:18;31.10;71.90
17200;DHT22;8716;52.268;20.968;2023-09-18T13:32:49;31.00;72.00
17200;DHT22;8716;52.268;20.968;2023-09-18T13:35:19;30.90;71.60
17200;DHT22;8716;52.268;20.968;2023-09-18T13:37:47;30.80;72.10
17200;DHT22;8716;52.268;20.968;2023-09-18T13:40:16;30.60;72.90
17200;DHT22;8716;52.268;20.968;2023-09-18T13:42:44;30.50;73.40
17200;DHT22;8716;52.268;20.968;2023-09-18T13:45:12;30.30;73.50
17200;DHT22;8716;52.268;20.968;2023-09-18T13:47:43;30.20;73.90
17200;DHT22;8716;52.268;20.968;2023-09-18T13:50:11;30.10;74.20
17200;DHT22;8716;52.268;20.968;2023-09-18T13:52:41;30.00;74.30
17200;DHT22;8716;52.268;20.968;2023-09-18T13:55:10;29.90;74.20
17200;DHT22;8716;52.268;20.968;2023-09-18T13:57:38;30.00;74.40
17200;DHT22;8716;52.268;20.968;2023-09-18T14:00:08;30.00;74.60
17200;DHT22;8716;52.268;20.968;2023-09-18T14:02:39;29.90;75.00
17200;DHT22;8716;52.268;20.968;2023-09-18T14:05:09;29.80;74.70
17200;DHT22;8716;52.268;20.968;2023-09-18T14:07:45;29.80;75.30
17200;DHT22;8716;52.268;20.968;2023-09-18T14:10:15;29.70;75.70
17200;DHT22;8716;52.268;20.968;2023-09-18T14:12:45;29.70;75.50
17200;DHT22;8716;52.268;20.968;2023-09-18T14:15:13;29.70;75.80
17200;DHT22;8716;52.268;20.968;2023-09-18T14:17:41;29.60;75.80
17200;DHT22;8716;52.268;20.968;2023-09-18T14:20:10;29.50;75.90
17200;DHT22;8716;52.268;20.968;2023-09-18T14:22:38;29.50;76.30
17200;DHT22;8716;52.268;20.968;2023-09-18T14:25:08;29.40;76.20
17200;DHT22;8716;52.268;20.968;2023-09-18T14:27:38;29.40;76.50
17200;DHT22;8716;52.268;20.968;2023-09-18T14:30:07;29.30;76.80
17200;DHT22;8716;52.268;20.968;2023-09-18T14:32:36;29.30;76.40
17200;DHT22;8716;52.268;20.968;2023-09-18T14:35:06;29.20;76.70
17200;DHT22;8716;52.268;20.968;2023-09-18T14:37:36;29.10;76.50
17200;DHT22;8716;52.268;20.968;2023-09-18T14:40:06;29.10;76.70
17200;DHT22;8716;52.268;20.968;2023-09-18T14:42:41;29.10;76.90
17200;DHT22;8716;52.268;20.968;2023-09-18T14:45:09;29.10;77.00
17200;DHT22;8716;52.268;20.968;2023-09-18T14:47:39;29.10;77.30
17200;DHT22;8716;52.268;20.968;2023-09-18T14:50:08;29.00;77.30
17200;DHT22;8716;52.268;20.968;2023-09-18T14:52:37;28.90;77.70
17200;DHT22;8716;52.268;20.968;2023-09-18T14:55:05;28.90;78.10
17200;DHT22;8716;52.268;20.968;2023-09-18T14:57:34;28.80;78.20
17200;DHT22;8716;52.268;20.968;2023-09-18T15:00:05;28.70;78.20
17200;DHT22;8716;52.268;20.968;2023-09-18T15:02:36;28.60;78.40
17200;DHT22;8716;52.268;20.968;2023-09-18T15:05:05;28.50;78.50
17200;DHT22;8716;52.268;20.968;2023-09-18T15:07:37;28.40;78.90
17200;DHT22;8716;52.268;20.968;2023-09-18T15:10:06;28.40;79.40
17200;DHT22;8716;52.268;20.968;2023-09-18T15:12:35;28.40;79.90
17200;DHT22;8716;52.268;20.968;2023-09-18T15:15:08;28.30;80.00
17200;DHT22;8716;52.268;20.968;2023-09-18T15:17:37;28.30;80.10
17200;DHT22;8716;52.268;20.968;2023-09-18T15:20:06;28.20;80.20
17200;DHT22;8716;52.268;20.968;2023-09-18T15:22:35;28.10;80.30
17200;DHT22;8716;52.268;20.968;2023-09-18T15:25:04;28.10;80.40
17200;DHT22;8716;52.268;20.968;2023-09-18T15:27:32;28.00;80.60
17200;DHT22;8716;52.268;20.968;2023-09-18T15:30:00;28.00;80.90
17200;DHT22;8716;52.268;20.968;2023-09-18T15:32:46;27.90;81.20
17200;DHT22;8716;52.268;20.968;2023-09-18T15:35:15;27.80;81.80
17200;DHT22;8716;52.268;20.968;2023-09-18T15:37:43;27.80;82.10
17200;DHT22;8716;52.268;20.968;2023-09-18T15:40:12;27.70;82.30
17200;DHT22;8716;52.268;20.968;2023-09-18T15:42:42;27.60;82.70
17200;DHT22;8716;52.268;20.968;2023-09-18T15:45:11;27.50;83.10
17200;DHT22;8716;52.268;20.968;2023-09-18T15:47:41;27.50;83.40
17200;DHT22;8716;52.268;20.968;2023-09-18T15:50:11;27.40;83.80